»·PEaware :: N647WT KLAX-KSAN

N647WT :: KLAX-KSAN

FLIGHT INFORMATION

Flight Status: Arrived
Operator: Privately registered:
United States
More flights under this callsign
Pilot: Anonymous 16342 (16342)
Aircraft: ECLIPSE 500
(EA50)
More flights by this aircraft type
Origin: KLAX Los Angeles Intl
United States
Destination: KSAN San Diego Intl-Lindbergh
United States
More flights between these airports :: More routes between these airports
Route: LAXX1 MZB
File this flight plan on PilotEdge
Remarks:
Altitude:
(Current/Filed)
11,000ft
Speed:
(Current/Filed)
345kts
Departed: 22-Aug-18 07:49 AM
Arrived: 22-Aug-18 08:29 AM
Distance/Time
Traveled:
95nm/0:40
Distance/Time
To Go:
Arrived

Flight Plot

Page will automatically refresh every two minutes.

Flight plan parsing failed; only flown route is shown


Map Options




Map Legend


Flown Route
Filed Route
Departure Airport
Arrival Airport
Navaid (VOR, NDB)
Fix

Horizontal Profiles

Position Reports

Time Latitude Longitude Heading Altitude Ground
Speed
22-Aug-18 07:28 33.933885 -118.395150 92 108ft 0kts
22-Aug-18 07:29 33.933885 -118.395150 92 108ft 0kts
22-Aug-18 07:30 33.933885 -118.395150 92 108ft 0kts
22-Aug-18 07:31 33.933885 -118.395150 92 108ft 0kts
22-Aug-18 07:32 33.933885 -118.395150 92 108ft 0kts
22-Aug-18 07:33 33.933885 -118.395150 92 108ft 0kts
22-Aug-18 07:34 33.933885 -118.395150 92 108ft 0kts
22-Aug-18 07:35 33.933885 -118.395150 92 108ft 0kts
22-Aug-18 07:36 33.933885 -118.395150 92 108ft 0kts
22-Aug-18 07:37 33.933885 -118.395150 92 108ft 0kts
22-Aug-18 07:38 33.933885 -118.395150 92 108ft 0kts
22-Aug-18 07:39 33.933885 -118.395150 92 108ft 0kts
22-Aug-18 07:40 33.933885 -118.395150 92 108ft 0kts
22-Aug-18 07:41 33.933885 -118.395150 92 108ft 0kts
22-Aug-18 07:42 33.933933 -118.395087 19 108ft 3kts
22-Aug-18 07:43 33.934721 -118.393859 8 108ft 5kts
22-Aug-18 07:44 33.935234 -118.391450 82 108ft 5kts
22-Aug-18 07:45 33.935658 -118.387268 82 108ft 16kts
22-Aug-18 07:46 33.936041 -118.383583 84 108ft 10kts
22-Aug-18 07:47 33.936515 -118.382758 2 108ft 0kts
22-Aug-18 07:48 33.936515 -118.382758 2 108ft 0kts
22-Aug-18 07:49 33.936567 -118.382761 357 108ft 3kts
22-Aug-18 07:50 33.936494 -118.391445 261 110ft 112kts
22-Aug-18 07:51 33.933224 -118.431659 263 602ft 150kts
22-Aug-18 07:52 33.913778 -118.497255 233 1813ft 204kts
22-Aug-18 07:53 33.879060 -118.532825 194 2116ft 194kts
22-Aug-18 07:54 33.828752 -118.547549 194 4468ft 194kts
22-Aug-18 07:55 33.776027 -118.562234 192 7252ft 189kts
22-Aug-18 07:56 33.731524 -118.540186 122 9392ft 211kts
22-Aug-18 07:57 33.699028 -118.479500 126 10986ft 246kts
22-Aug-18 07:58 33.656858 -118.405647 125 10964ft 310kts
22-Aug-18 07:59 33.611504 -118.325972 125 10955ft 315kts
22-Aug-18 08:00 33.563897 -118.242441 125 10957ft 320kts
22-Aug-18 08:01 33.513805 -118.154691 125 10959ft 318kts
22-Aug-18 08:02 33.465278 -118.069931 125 10953ft 319kts
22-Aug-18 08:03 33.415017 -117.982332 125 10968ft 320kts
22-Aug-18 08:04 33.365464 -117.896157 125 11004ft 321kts
22-Aug-18 08:05 33.314833 -117.808317 125 11000ft 321kts
22-Aug-18 08:06 33.263973 -117.720291 125 11000ft 321kts
22-Aug-18 08:07 33.213505 -117.633148 125 11000ft 320kts
22-Aug-18 08:08 33.163155 -117.546413 125 10983ft 321kts
22-Aug-18 08:09 33.115309 -117.464132 125 10977ft 261kts
22-Aug-18 08:10 33.078716 -117.401377 126 10984ft 239kts
22-Aug-18 08:11 33.040946 -117.339474 145 10975ft 235kts
22-Aug-18 08:12 32.987056 -117.316930 162 9831ft 206kts
22-Aug-18 08:13 32.932907 -117.293729 160 8333ft 209kts
22-Aug-18 08:14 32.878786 -117.269488 160 7026ft 224kts
22-Aug-18 08:15 32.846005 -117.220702 101 6985ft 210kts
22-Aug-18 08:16 32.835263 -117.153535 101 6989ft 209kts
22-Aug-18 08:17 32.824237 -117.086583 101 6290ft 201kts
22-Aug-18 08:18 32.814079 -117.026155 101 5341ft 194kts
22-Aug-18 08:19 32.803477 -116.964513 101 5012ft 199kts
22-Aug-18 08:20 32.776265 -116.910881 179 4564ft 223kts
22-Aug-18 08:21 32.715530 -116.927092 193 3814ft 218kts
22-Aug-18 08:22 32.688006 -116.969641 280 3808ft 187kts
22-Aug-18 08:23 32.697604 -117.028270 281 3654ft 185kts
22-Aug-18 08:24 32.705778 -117.077564 282 2716ft 151kts
22-Aug-18 08:25 32.721508 -117.120273 311 2049ft 146kts
22-Aug-18 08:26 32.752991 -117.162645 313 2039ft 183kts
22-Aug-18 08:27 32.776789 -117.143468 126 2043ft 144kts
22-Aug-18 08:28 32.743099 -117.129856 213 2032ft 137kts
22-Aug-18 08:29 32.728127 -117.165339 279 587ft 120kts
22-Aug-18 08:30 32.734437 -117.193092 286 19ft 31kts
22-Aug-18 08:31 32.733637 -117.194240 108 19ft 7kts
22-Aug-18 08:32 32.733100 -117.192063 103 19ft 12kts
22-Aug-18 08:33 32.731971 -117.191193 296 19ft 0kts
22-Aug-18 08:34 32.731979 -117.191212 295 19ft 0kts
22-Aug-18 08:35 32.731979 -117.191212 295 19ft 0kts

Navigation Log

Ident Type
Flight plan parsing failed, navigation log unavailable